Time;durP1;ratioP1;P1;durP2;ratioP2;P2;SDS_P1;SDS_P2;PMS_P1;PMS_P2;Temp;Humidity;BMP_temperature;BMP_pressure;BME280_temperature;BME280_humidity;BME280_pressure;Samples;Min_cycle;Max_cycle;Signal;HPM_P1;HPM_P2
2021/09/24 00:01:44;;;;;;;21.25;13.20;;;16.00;99.90;;;;;;5055310;28;20107;-86
2021/09/24 00:04:14;;;;;;;24.08;14.90;;;16.00;99.90;;;;;;5055102;28;20070;-85
2021/09/24 00:06:41;;;;;;;22.88;14.60;;;16.10;99.90;;;;;;5055220;28;20024;-86
2021/09/24 00:09:07;;;;;;;21.30;12.82;;;16.00;99.90;;;;;;5054422;28;20025;-86
2021/09/24 00:11:34;;;;;;;23.30;15.45;;;16.10;99.90;;;;;;5071871;28;20078;-86
2021/09/24 00:13:59;;;;;;;24.95;14.02;;;16.10;99.90;;;;;;5054979;28;20074;-86
2021/09/24 00:16:25;;;;;;;21.60;14.18;;;16.10;99.90;;;;;;5054768;28;20024;-85
2021/09/24 00:18:51;;;;;;;25.33;15.27;;;16.00;99.90;;;;;;5072540;28;20012;-86
2021/09/24 00:21:16;;;;;;;21.55;13.43;;;16.00;99.90;;;;;;5054640;28;20428;-85
2021/09/24 00:23:42;;;;;;;21.70;13.52;;;16.00;99.90;;;;;;5054747;28;20503;-86
2021/09/24 00:26:08;;;;;;;26.50;15.15;;;16.00;99.90;;;;;;5072810;28;20039;-86
2021/09/24 00:28:33;;;;;;;21.65;14.30;;;16.00;99.90;;;;;;5054733;28;20036;-86
2021/09/24 00:30:59;;;;;;;20.42;12.40;;;16.00;99.90;;;;;;5072082;28;20034;-85
2021/09/24 00:33:27;;;;;;;28.27;15.63;;;16.00;99.90;;;;;;5054538;28;20025;-86
2021/09/24 00:35:56;;;;;;;23.63;13.23;;;16.00;99.90;;;;;;5072185;28;20035;-85
2021/09/24 00:38:23;;;;;;;23.02;13.95;;;16.00;99.90;;;;;;5054595;28;20028;-86
2021/09/24 00:40:50;;;;;;;23.98;15.18;;;16.00;99.90;;;;;;5054120;28;20020;-86
2021/09/24 00:43:15;;;;;;;21.95;14.90;;;16.00;99.90;;;;;;5054401;28;20025;-86
2021/09/24 00:45:41;;;;;;;20.83;14.10;;;16.00;99.90;;;;;;5072002;28;20089;-86
2021/09/24 00:48:07;;;;;;;22.35;14.93;;;16.00;99.90;;;;;;5072362;28;20596;-86
2021/09/24 00:50:32;;;;;;;25.60;15.43;;;16.00;99.90;;;;;;5071788;28;20024;-86
2021/09/24 00:52:59;;;;;;;22.48;15.00;;;16.00;99.90;;;;;;5054294;28;20044;-86
2021/09/24 00:55:26;;;;;;;30.13;17.02;;;16.00;99.90;;;;;;5054288;28;20032;-86
2021/09/24 00:57:52;;;;;;;29.15;16.40;;;16.00;99.90;;;;;;5054046;28;20032;-85
2021/09/24 01:00:19;;;;;;;25.25;16.13;;;16.00;99.90;;;;;;5053678;28;20024;-86
2021/09/24 01:02:45;;;;;;;24.95;15.43;;;16.00;99.90;;;;;;5054407;28;20385;-86
2021/09/24 01:05:12;;;;;;;21.98;14.00;;;16.00;99.90;;;;;;5054027;28;20051;-85
2021/09/24 01:07:40;;;;;;;24.75;15.35;;;16.00;99.90;;;;;;5054183;28;20031;-85
2021/09/24 01:10:08;;;;;;;23.73;14.88;;;16.00;99.90;;;;;;5053527;28;20029;-85
2021/09/24 01:12:35;;;;;;;23.60;14.60;;;16.00;99.90;;;;;;5054061;28;20401;-86
2021/09/24 01:15:13;;;;;;;19.95;12.65;;;16.00;99.90;;;;;;5071827;28;20121;-86
2021/09/24 01:17:39;;;;;;;21.77;13.35;;;15.90;99.90;;;;;;5054145;28;20017;-86
2021/09/24 01:20:07;;;;;;;24.20;12.48;;;15.90;99.90;;;;;;5053417;28;20110;-86
2021/09/24 01:22:33;;;;;;;24.42;12.65;;;15.90;99.90;;;;;;5055999;28;20115;-86
2021/09/24 01:24:59;;;;;;;22.33;12.35;;;15.90;99.90;;;;;;5076391;28;20107;-86
2021/09/24 01:27:25;;;;;;;20.60;11.40;;;15.90;99.90;;;;;;5058197;28;20028;-86
2021/09/24 01:29:55;;;;;;;18.30;10.88;;;15.90;99.90;;;;;;5057459;28;20098;-85
2021/09/24 01:32:22;;;;;;;20.60;11.82;;;15.90;99.90;;;;;;5075977;28;20485;-86
2021/09/24 01:34:47;;;;;;;15.02;9.65;;;15.90;99.90;;;;;;5075802;28;20090;-85
2021/09/24 01:37:13;;;;;;;19.35;10.43;;;15.90;99.90;;;;;;5057989;28;20021;-86
2021/09/24 01:39:39;;;;;;;19.15;9.93;;;15.90;99.90;;;;;;5057325;28;20052;-86
2021/09/24 01:42:05;;;;;;;21.85;10.48;;;15.90;99.90;;;;;;5057715;28;20020;-85
2021/09/24 01:44:31;;;;;;;19.65;11.40;;;15.90;99.90;;;;;;5057779;28;20469;-85
2021/09/24 01:46:56;;;;;;;17.58;11.13;;;15.90;99.90;;;;;;5057690;28;20031;-86
2021/09/24 01:49:22;;;;;;;18.52;11.52;;;15.80;99.90;;;;;;5057325;28;20036;-86
2021/09/24 01:51:49;;;;;;;20.45;12.60;;;15.90;99.90;;;;;;5057519;28;20021;-86
2021/09/24 01:54:18;;;;;;;20.08;13.25;;;15.90;99.90;;;;;;5057611;28;20116;-86
2021/09/24 01:56:44;;;;;;;19.10;13.75;;;15.90;99.90;;;;;;5075332;28;20028;-86
2021/09/24 01:59:09;;;;;;;21.25;14.25;;;15.80;99.90;;;;;;5057026;28;20029;-85
2021/09/24 02:01:35;;;;;;;24.23;16.13;;;15.90;99.90;;;;;;5075403;28;20040;-85
2021/09/24 02:04:02;;;;;;;22.05;16.35;;;15.90;99.90;;;;;;5057363;28;20036;-85
2021/09/24 02:06:27;;;;;;;27.65;17.73;;;15.90;99.90;;;;;;5057256;28;20033;-85
2021/09/24 02:08:53;;;;;;;25.08;16.75;;;15.90;99.90;;;;;;5057105;28;20025;-86
2021/09/24 02:11:19;;;;;;;26.90;18.60;;;15.90;99.90;;;;;;5057265;28;20119;-86
2021/09/24 02:13:44;;;;;;;29.30;19.90;;;15.90;99.90;;;;;;5057268;28;20481;-86
2021/09/24 02:16:11;;;;;;;34.53;20.50;;;15.90;99.90;;;;;;5057277;28;20029;-86
2021/09/24 02:18:38;;;;;;;25.58;17.70;;;15.90;99.90;;;;;;5057128;28;20401;-85
2021/09/24 02:21:04;;;;;;;26.80;19.58;;;15.90;99.90;;;;;;5056508;28;20025;-86
2021/09/24 02:23:30;;;;;;;33.08;20.92;;;15.90;99.90;;;;;;5056996;28;20024;-86
2021/09/24 02:25:56;;;;;;;30.58;19.67;;;15.90;99.90;;;;;;5056853;28;20028;-86
2021/09/24 02:28:21;;;;;;;28.67;20.17;;;15.90;99.90;;;;;;5074777;28;20032;-85
2021/09/24 02:30:47;;;;;;;28.33;19.88;;;15.90;99.90;;;;;;5055122;28;20033;-86
2021/09/24 02:33:13;;;;;;;28.00;18.90;;;15.90;99.90;;;;;;5055035;28;20385;-86
2021/09/24 02:35:38;;;;;;;33.60;19.92;;;15.90;99.90;;;;;;5056939;28;20035;-86
2021/09/24 02:38:05;;;;;;;26.90;17.92;;;15.90;99.90;;;;;;5056788;28;20481;-86
2021/09/24 02:40:31;;;;;;;29.00;20.10;;;15.90;99.90;;;;;;5056017;28;20016;-86
2021/09/24 02:42:57;;;;;;;27.33;18.73;;;15.90;99.90;;;;;;5074786;28;20025;-86
2021/09/24 02:45:22;;;;;;;28.40;18.15;;;15.90;99.90;;;;;;5056490;28;20035;-86
2021/09/24 02:47:48;;;;;;;26.67;16.75;;;15.90;99.90;;;;;;5056580;28;20032;-86
2021/09/24 02:50:14;;;;;;;27.40;17.95;;;15.90;99.90;;;;;;5055818;28;20207;-86
2021/09/24 02:52:40;;;;;;;24.60;17.63;;;15.90;99.90;;;;;;5056311;28;20211;-86
2021/09/24 02:55:07;;;;;;;27.58;17.70;;;15.90;99.90;;;;;;5056290;28;20024;-86
2021/09/24 02:57:33;;;;;;;27.58;17.58;;;15.90;99.90;;;;;;5056250;28;20024;-86
2021/09/24 02:59:59;;;;;;;27.45;18.33;;;15.90;99.90;;;;;;5055858;28;20107;-86
2021/09/24 03:02:24;;;;;;;27.85;17.83;;;15.90;99.90;;;;;;5074122;28;20025;-86
2021/09/24 03:04:50;;;;;;;26.90;18.45;;;15.90;99.90;;;;;;5056069;28;20027;-86
2021/09/24 03:07:16;;;;;;;27.40;18.42;;;15.90;99.90;;;;;;5056147;28;20024;-86
2021/09/24 03:09:42;;;;;;;29.08;18.45;;;15.90;99.90;;;;;;5073488;28;20055;-86
2021/09/24 03:12:09;;;;;;;28.20;18.08;;;15.90;99.90;;;;;;5056028;28;20388;-87
2021/09/24 03:14:35;;;;;;;28.95;18.05;;;15.90;99.90;;;;;;5073928;28;20397;-86
2021/09/24 03:17:00;;;;;;;25.77;17.77;;;15.90;99.90;;;;;;5055808;28;20028;-86
2021/09/24 03:19:26;;;;;;;29.92;18.70;;;15.90;99.90;;;;;;5055406;28;20027;-86
2021/09/24 03:21:52;;;;;;;25.58;18.23;;;15.90;99.90;;;;;;5073714;28;20029;-86
2021/09/24 03:24:18;;;;;;;26.85;18.80;;;15.90;99.90;;;;;;5055818;28;20085;-86
2021/09/24 03:26:45;;;;;;;28.17;18.00;;;15.90;99.90;;;;;;5055783;28;20024;-86
2021/09/24 03:29:12;;;;;;;29.15;18.50;;;15.90;99.90;;;;;;5073050;28;20029;-87
2021/09/24 03:31:38;;;;;;;26.40;16.85;;;15.90;99.90;;;;;;5073562;28;20504;-86
2021/09/24 03:34:05;;;;;;;33.33;20.60;;;15.90;99.90;;;;;;5055523;28;20032;-86
2021/09/24 03:36:30;;;;;;;27.90;18.67;;;15.90;99.90;;;;;;5055571;28;20032;-86
2021/09/24 03:38:56;;;;;;;38.30;22.98;;;15.90;99.90;;;;;;5054968;28;20035;-86
2021/09/24 03:41:22;;;;;;;32.25;21.40;;;15.90;99.90;;;;;;5073165;28;20036;-86
2021/09/24 03:43:47;;;;;;;38.95;23.23;;;15.90;99.90;;;;;;5055458;28;20599;-86
2021/09/24 03:46:13;;;;;;;35.33;21.17;;;15.90;99.90;;;;;;5073201;28;20037;-86
2021/09/24 03:48:38;;;;;;;36.65;22.35;;;15.90;99.90;;;;;;5055384;28;20028;-86
2021/09/24 03:51:04;;;;;;;39.88;23.90;;;15.90;99.90;;;;;;5072601;28;20089;-86
2021/09/24 03:53:30;;;;;;;42.70;24.73;;;15.90;99.90;;;;;;5055250;28;20071;-86
2021/09/24 03:55:56;;;;;;;38.22;22.48;;;15.90;99.90;;;;;;5073013;28;20078;-86
2021/09/24 03:58:22;;;;;;;38.33;22.45;;;15.90;99.90;;;;;;5073108;28;20214;-86
2021/09/24 04:00:49;;;;;;;35.47;22.05;;;15.90;99.90;;;;;;5072524;28;20032;-86
2021/09/24 04:03:15;;;;;;;34.53;21.00;;;15.90;99.90;;;;;;5054894;28;20028;-86
2021/09/24 04:05:41;;;;;;;35.92;22.08;;;15.90;99.90;;;;;;5054975;28;20109;-86
2021/09/24 04:08:07;;;;;;;41.10;22.33;;;15.90;99.90;;;;;;5055334;28;20477;-86
2021/09/24 04:10:32;;;;;;;36.10;21.30;;;15.90;99.90;;;;;;5054309;28;20033;-86
2021/09/24 04:12:58;;;;;;;44.55;23.88;;;15.90;99.90;;;;;;5072810;28;20031;-86
2021/09/24 04:15:24;;;;;;;43.97;24.08;;;15.90;99.90;;;;;;5054810;28;20416;-86
2021/09/24 04:17:49;;;;;;;50.17;25.58;;;16.00;99.90;;;;;;5054895;28;20331;-86
2021/09/24 04:20:15;;;;;;;50.72;24.77;;;15.90;99.90;;;;;;5072091;28;20035;-86
2021/09/24 04:22:41;;;;;;;44.85;25.25;;;15.90;99.90;;;;;;5054687;28;20025;-86
2021/09/24 04:25:07;;;;;;;50.63;26.58;;;16.00;99.90;;;;;;5054440;28;20481;-86
2021/09/24 04:27:33;;;;;;;58.15;28.77;;;15.90;99.90;;;;;;5072345;28;20478;-86
2021/09/24 04:29:58;;;;;;;58.53;29.35;;;16.00;99.90;;;;;;5071840;28;20028;-86
2021/09/24 04:32:24;;;;;;;56.70;29.77;;;16.00;99.90;;;;;;5054427;28;20028;-86
2021/09/24 04:34:50;;;;;;;67.40;32.92;;;15.90;99.90;;;;;;5071992;28;20043;-86
2021/09/24 04:37:15;;;;;;;58.92;29.55;;;15.90;99.90;;;;;;5054425;28;20034;-86
2021/09/24 04:39:41;;;;;;;55.45;29.13;;;16.00;99.90;;;;;;5071683;28;20103;-86
2021/09/24 04:42:07;;;;;;;71.45;33.63;;;15.90;99.90;;;;;;5054359;28;20064;-86
2021/09/24 04:44:32;;;;;;;79.85;37.20;;;15.90;99.90;;;;;;5054305;28;20035;-85
2021/09/24 04:46:58;;;;;;;87.10;39.28;;;15.90;99.90;;;;;;5054348;28;20226;-86
2021/09/24 04:49:24;;;;;;;81.40;37.03;;;15.90;99.90;;;;;;5053702;28;20040;-86
2021/09/24 04:51:49;;;;;;;89.53;41.83;;;15.90;99.90;;;;;;5054049;28;20492;-86
2021/09/24 04:54:15;;;;;;;102.63;44.63;;;16.00;99.90;;;;;;5054214;28;20485;-86
2021/09/24 04:56:41;;;;;;;96.63;42.47;;;15.90;99.90;;;;;;5053580;28;20029;-86
2021/09/24 04:59:07;;;;;;;92.93;42.38;;;16.00;99.90;;;;;;5071543;28;20024;-86
2021/09/24 05:01:32;;;;;;;90.65;40.45;;;15.90;99.90;;;;;;5054054;28;20514;-86
2021/09/24 05:03:58;;;;;;;90.05;41.40;;;15.90;99.90;;;;;;5053979;28;20473;-85
2021/09/24 05:06:24;;;;;;;83.03;39.47;;;15.90;99.90;;;;;;5054005;28;20458;-86
2021/09/24 05:08:49;;;;;;;80.45;38.08;;;15.90;99.90;;;;;;5071660;28;20029;-86
2021/09/24 05:11:15;;;;;;;79.57;38.50;;;15.90;99.90;;;;;;5071547;28;20496;-85
2021/09/24 05:13:41;;;;;;;88.53;40.63;;;15.90;99.90;;;;;;5053880;28;20032;-85
2021/09/24 05:16:06;;;;;;;82.65;39.83;;;15.90;99.90;;;;;;5053997;28;20052;-86
2021/09/24 05:18:32;;;;;;;77.63;38.35;;;15.90;99.90;;;;;;5053874;28;20081;-86
2021/09/24 05:20:57;;;;;;;80.80;38.17;;;16.00;99.90;;;;;;5053334;28;20028;-86
2021/09/24 05:23:23;;;;;;;81.10;38.20;;;15.90;99.90;;;;;;5071706;28;20490;-86
2021/09/24 05:25:49;;;;;;;78.50;38.25;;;15.90;99.90;;;;;;5053640;28;20098;-86
2021/09/24 05:28:14;;;;;;;78.07;38.28;;;15.90;99.90;;;;;;5053854;28;20029;-86
2021/09/24 05:30:40;;;;;;;76.82;37.75;;;15.90;99.90;;;;;;5053521;28;20039;-86
2021/09/24 05:33:07;;;;;;;80.47;37.90;;;16.00;99.90;;;;;;5071741;28;20032;-86
2021/09/24 05:35:32;;;;;;;70.32;37.03;;;16.00;99.90;;;;;;5053643;28;20076;-86
2021/09/24 05:37:58;;;;;;;70.22;35.03;;;15.90;99.90;;;;;;5071588;28;20080;-86
2021/09/24 05:40:24;;;;;;;68.95;35.00;;;16.00;99.90;;;;;;5053209;28;20079;-86
2021/09/24 05:42:51;;;;;;;63.35;32.83;;;15.90;99.90;;;;;;5071611;28;20020;-86
2021/09/24 05:45:17;;;;;;;66.35;35.97;;;15.90;99.90;;;;;;5053582;28;20024;-86
2021/09/24 05:47:44;;;;;;;72.50;34.22;;;15.90;99.90;;;;;;5053931;28;20032;-86
2021/09/24 05:50:13;;;;;;;64.45;32.67;;;15.90;99.90;;;;;;5070917;28;20104;-85
2021/09/24 05:52:50;;;;;;;61.38;32.17;;;15.90;99.90;;;;;;5053855;28;20444;-86
2021/09/24 05:55:18;;;;;;;63.75;33.35;;;15.90;99.90;;;;;;5053369;28;20397;-86
2021/09/24 05:57:45;;;;;;;61.40;31.40;;;15.90;99.90;;;;;;5053440;28;20017;-86
2021/09/24 06:00:12;;;;;;;55.40;29.58;;;15.90;99.90;;;;;;5052730;28;20055;-86
2021/09/24 06:02:39;;;;;;;55.25;29.58;;;16.00;99.90;;;;;;5071411;28;20047;-86
2021/09/24 06:05:05;;;;;;;63.13;32.70;;;15.90;99.90;;;;;;5071302;28;20071;-86
2021/09/24 06:07:31;;;;;;;59.78;31.92;;;15.90;99.90;;;;;;5071683;28;20435;-85
2021/09/24 06:09:57;;;;;;;57.17;30.27;;;15.90;99.90;;;;;;5074544;28;20052;-86
2021/09/24 06:12:23;;;;;;;57.55;30.25;;;15.90;99.90;;;;;;5057126;28;20504;-86
2021/09/24 06:14:48;;;;;;;57.72;31.45;;;15.90;99.90;;;;;;5074887;28;20126;-86
2021/09/24 06:17:14;;;;;;;59.28;31.38;;;15.80;99.90;;;;;;5074970;28;20029;-86
2021/09/24 06:19:40;;;;;;;54.05;30.35;;;15.90;99.90;;;;;;5056626;28;20142;-86
2021/09/24 06:22:07;;;;;;;58.83;31.52;;;15.90;99.90;;;;;;5056885;28;20159;-86
2021/09/24 06:24:32;;;;;;;56.28;30.25;;;15.80;99.90;;;;;;5074683;28;20028;-86
2021/09/24 06:26:59;;;;;;;56.00;31.27;;;15.80;99.90;;;;;;5056995;28;20032;-86
2021/09/24 06:29:25;;;;;;;54.17;31.23;;;15.80;99.90;;;;;;5074267;28;20025;-85
2021/09/24 06:31:50;;;;;;;54.78;28.77;;;15.80;99.90;;;;;;5056823;28;20051;-86
2021/09/24 06:34:16;;;;;;;46.25;25.85;;;15.80;99.90;;;;;;5056398;28;20078;-86
2021/09/24 06:36:42;;;;;;;47.85;24.83;;;15.80;99.90;;;;;;5056860;28;20119;-85
2021/09/24 06:39:07;;;;;;;43.25;24.98;;;15.80;99.90;;;;;;5074183;28;20029;-86
2021/09/24 06:41:33;;;;;;;43.00;23.88;;;15.80;99.90;;;;;;5076255;28;20020;-85
2021/09/24 06:43:59;;;;;;;42.53;23.70;;;15.70;99.90;;;;;;5060671;28;20028;-85
2021/09/24 06:46:24;;;;;;;42.58;22.85;;;15.70;99.90;;;;;;5060663;28;20496;-85
2021/09/24 06:48:50;;;;;;;37.70;22.88;;;15.70;99.90;;;;;;5060117;28;20500;-85
2021/09/24 06:51:16;;;;;;;42.88;22.70;;;15.70;99.90;;;;;;5059090;28;20108;-85
2021/09/24 06:53:41;;;;;;;46.65;23.58;;;15.70;99.90;;;;;;5059688;28;20543;-85
2021/09/24 06:56:07;;;;;;;39.42;24.23;;;15.70;99.90;;;;;;5060232;28;20024;-85
2021/09/24 06:58:33;;;;;;;43.38;23.70;;;15.70;99.90;;;;;;5059041;28;20031;-85
2021/09/24 07:01:00;;;;;;;41.33;23.77;;;15.70;99.90;;;;;;5076017;28;20039;-84
2021/09/24 07:03:25;;;;;;;43.55;25.73;;;15.70;99.90;;;;;;5059068;28;20115;-85
2021/09/24 07:05:51;;;;;;;50.83;27.65;;;15.70;99.90;;;;;;5076566;28;20056;-85
2021/09/24 07:08:17;;;;;;;51.33;27.02;;;15.70;99.90;;;;;;5059100;28;20477;-85
2021/09/24 07:10:44;;;;;;;44.03;25.17;;;15.70;99.90;;;;;;5060348;28;20082;-85
2021/09/24 07:13:09;;;;;;;45.47;25.60;;;15.70;99.90;;;;;;5060502;28;20115;-84
2021/09/24 07:15:36;;;;;;;36.17;23.58;;;15.70;99.90;;;;;;5077924;28;20028;-85
2021/09/24 07:18:01;;;;;;;38.67;22.88;;;15.70;99.90;;;;;;5077822;28;20062;-85
2021/09/24 07:20:27;;;;;;;40.28;22.95;;;15.70;99.90;;;;;;5057916;28;20025;-85
2021/09/24 07:22:52;;;;;;;34.33;21.60;;;15.70;99.90;;;;;;5059118;28;20024;-86
2021/09/24 07:25:18;;;;;;;37.08;23.30;;;15.70;99.90;;;;;;5058114;28;20099;-85
2021/09/24 07:27:44;;;;;;;37.67;22.65;;;15.60;99.90;;;;;;5075999;28;20108;-85
2021/09/24 07:30:11;;;;;;;36.55;23.60;;;15.70;99.90;;;;;;5075677;28;20055;-85
2021/09/24 07:32:37;;;;;;;32.45;20.50;;;15.70;99.90;;;;;;5057928;28;20025;-86
2021/09/24 07:35:03;;;;;;;37.05;22.85;;;15.70;99.90;;;;;;5076419;28;20051;-85
2021/09/24 07:37:28;;;;;;;33.53;21.20;;;15.70;99.90;;;;;;5058817;28;20206;-85
2021/09/24 07:39:54;;;;;;;34.60;19.30;;;15.70;99.90;;;;;;5059082;28;20389;-85
2021/09/24 07:42:20;;;;;;;31.08;19.75;;;15.70;99.90;;;;;;5060016;28;20031;-85
2021/09/24 07:44:46;;;;;;;33.75;20.67;;;15.70;99.90;;;;;;5077947;28;20086;-85
2021/09/24 07:47:11;;;;;;;33.88;20.75;;;15.60;99.90;;;;;;5058700;28;20115;-85
2021/09/24 07:49:37;;;;;;;31.52;19.38;;;15.60;99.90;;;;;;5076058;28;20032;-86
2021/09/24 07:52:04;;;;;;;30.00;18.25;;;15.60;99.90;;;;;;5076099;28;20039;-85
2021/09/24 07:54:29;;;;;;;29.50;17.67;;;15.60;99.90;;;;;;5076856;28;20031;-85
2021/09/24 07:56:55;;;;;;;30.38;18.27;;;15.60;99.90;;;;;;5076655;28;20099;-85
2021/09/24 07:59:21;;;;;;;30.85;19.02;;;15.60;99.90;;;;;;5075658;28;20490;-84
2021/09/24 08:01:47;;;;;;;27.83;18.13;;;15.70;99.90;;;;;;5059232;28;20025;-85
2021/09/24 08:04:12;;;;;;;28.90;17.83;;;15.70;99.90;;;;;;5058373;28;20032;-85
2021/09/24 08:06:38;;;;;;;29.88;18.20;;;15.70;99.90;;;;;;5058325;28;20028;-85
2021/09/24 08:09:04;;;;;;;29.92;19.33;;;15.70;99.90;;;;;;5058013;28;20613;-84
2021/09/24 08:11:31;;;;;;;32.13;19.45;;;15.70;99.90;;;;;;5057881;28;20480;-85
2021/09/24 08:13:56;;;;;;;31.80;19.25;;;15.70;99.90;;;;;;5057451;28;20029;-85
2021/09/24 08:16:22;;;;;;;30.13;18.50;;;15.70;99.90;;;;;;5057186;28;20094;-85
2021/09/24 08:18:48;;;;;;;35.78;21.25;;;15.70;99.90;;;;;;5056400;28;20031;-86
2021/09/24 08:21:14;;;;;;;33.78;20.55;;;15.70;99.90;;;;;;5074434;28;20076;-86
2021/09/24 08:23:41;;;;;;;35.78;21.70;;;15.70;99.90;;;;;;5075644;28;20055;-85
2021/09/24 08:26:09;;;;;;;32.58;19.55;;;15.70;99.90;;;;;;5057525;28;20374;-85
2021/09/24 08:28:35;;;;;;;34.85;20.58;;;15.70;99.90;;;;;;5057093;28;20082;-85
2021/09/24 08:31:01;;;;;;;33.55;19.88;;;15.70;99.90;;;;;;5072302;28;20080;-85
2021/09/24 08:33:27;;;;;;;33.70;19.60;;;15.70;99.90;;;;;;5054285;28;20060;-85
2021/09/24 08:35:53;;;;;;;33.45;19.75;;;15.70;99.90;;;;;;5055265;28;20028;-86
2021/09/24 08:38:19;;;;;;;34.35;19.73;;;15.70;99.90;;;;;;5072645;28;20024;-86
2021/09/24 08:40:46;;;;;;;33.95;19.80;;;15.80;99.90;;;;;;5072057;28;20029;-85
2021/09/24 08:43:13;;;;;;;36.67;20.77;;;15.80;99.90;;;;;;5072319;28;20032;-86
2021/09/24 08:45:41;;;;;;;37.80;20.23;;;15.80;99.90;;;;;;5072193;28;20127;-85
2021/09/24 08:48:10;;;;;;;35.90;19.70;;;15.80;99.90;;;;;;5054322;28;20029;-86
2021/09/24 08:50:39;;;;;;;38.30;19.45;;;15.80;99.90;;;;;;5071813;28;20115;-86
2021/09/24 08:53:06;;;;;;;35.78;21.00;;;15.80;99.90;;;;;;5054308;28;20307;-86
2021/09/24 08:55:33;;;;;;;38.00;20.67;;;15.80;99.90;;;;;;5054101;28;20059;-86
2021/09/24 08:57:59;;;;;;;38.80;21.08;;;15.80;99.90;;;;;;5054276;28;20031;-86
2021/09/24 09:00:26;;;;;;;40.45;20.67;;;15.80;99.90;;;;;;5053770;28;20031;-86
2021/09/24 09:02:57;;;;;;;36.47;20.05;;;15.80;99.90;;;;;;5054292;28;20067;-85
2021/09/24 09:05:25;;;;;;;33.05;19.83;;;15.80;99.90;;;;;;5054252;28;20219;-85
2021/09/24 09:08:05;;;;;;;33.28;18.70;;;15.90;99.90;;;;;;5053829;28;20032;-86
2021/09/24 09:10:38;;;;;;;32.80;18.02;;;15.90;99.90;;;;;;5053668;28;20035;-86
2021/09/24 09:13:08;;;;;;;33.20;19.90;;;15.80;99.90;;;;;;5054100;28;20027;-85
2021/09/24 09:15:35;;;;;;;36.25;19.48;;;15.90;99.90;;;;;;5054135;28;20025;-86
2021/09/24 09:18:00;;;;;;;38.35;19.08;;;15.90;99.90;;;;;;5054064;28;20095;-85
2021/09/24 09:20:30;;;;;;;35.78;19.25;;;15.90;99.90;;;;;;5071340;28;20051;-86
2021/09/24 09:22:58;;;;;;;37.58;19.85;;;15.90;99.90;;;;;;5071811;28;20020;-86
2021/09/24 09:25:32;;;;;;;36.97;20.38;;;15.90;99.90;;;;;;5054136;28;20024;-86
2021/09/24 09:28:01;;;;;;;37.45;21.08;;;15.90;99.90;;;;;;5053914;28;20029;-86
2021/09/24 09:30:31;;;;;;;45.75;20.20;;;15.90;99.90;;;;;;5071484;28;20020;-86
2021/09/24 09:33:17;;;;;;;33.90;19.80;;;15.90;99.90;;;;;;5053691;28;20550;-86
2021/09/24 09:35:51;;;;;;;37.90;19.70;;;15.90;99.90;;;;;;5071670;28;20028;-85
2021/09/24 09:38:31;;;;;;;44.78;18.17;;;16.00;99.90;;;;;;5054218;28;20546;-86
2021/09/24 09:41:00;;;;;;;29.05;17.23;;;16.00;99.90;;;;;;5053489;28;20028;-86
2021/09/24 09:43:46;;;;;;;34.50;17.05;;;16.10;99.90;;;;;;5055792;28;20035;-86
2021/09/24 09:46:22;;;;;;;29.15;17.05;;;16.10;99.90;;;;;;5058411;28;20162;-86
2021/09/24 09:49:07;;;;;;;28.77;18.02;;;16.10;99.90;;;;;;5075774;28;20029;-85
2021/09/24 09:51:35;;;;;;;32.65;17.77;;;16.20;99.90;;;;;;5057886;28;20060;-86
2021/09/24 09:54:01;;;;;;;23.90;15.13;;;16.20;99.90;;;;;;5075628;28;20396;-86
2021/09/24 09:57:08;;;;;;;25.55;15.73;;;16.30;99.90;;;;;;5075690;28;20079;-86
2021/09/24 09:59:34;;;;;;;26.45;14.75;;;16.30;99.90;;;;;;5057320;28;20035;-86
2021/09/24 10:02:09;;;;;;;21.95;13.50;;;16.30;99.90;;;;;;5057444;28;20024;-86
2021/09/24 10:04:40;;;;;;;23.73;14.95;;;16.40;99.90;;;;;;5075323;28;20029;-85
2021/09/24 10:07:18;;;;;;;21.50;13.55;;;16.40;99.90;;;;;;5057647;28;20029;-86
2021/09/24 10:09:46;;;;;;;26.83;14.95;;;16.40;99.90;;;;;;5056917;28;20393;-86
2021/09/24 10:12:20;;;;;;;21.38;13.60;;;16.50;99.90;;;;;;5057149;28;20052;-86
2021/09/24 10:14:48;;;;;;;23.38;13.38;;;16.50;99.90;;;;;;5075278;28;20016;-86
2021/09/24 10:17:16;;;;;;;23.70;14.50;;;16.50;99.90;;;;;;5057167;28;20024;-86
2021/09/24 10:19:43;;;;;;;23.67;15.52;;;16.50;99.90;;;;;;5056857;28;20021;-86
2021/09/24 10:22:09;;;;;;;25.00;13.05;;;16.60;99.90;;;;;;5057226;28;20024;-86
2021/09/24 10:24:34;;;;;;;23.05;12.60;;;16.60;99.90;;;;;;5075073;28;20017;-87
2021/09/24 10:27:06;;;;;;;23.58;12.65;;;16.50;99.90;;;;;;5057095;28;20077;-86
2021/09/24 10:29:35;;;;;;;23.83;13.02;;;16.60;99.90;;;;;;5056496;28;20028;-86
2021/09/24 10:32:15;;;;;;;;;;;16.60;99.90;;;;;;5057397;28;20029;-86
2021/09/24 10:35:07;;;;;;;19.55;11.48;;;16.60;99.90;;;;;;5056913;28;19923;-86
2021/09/24 10:37:39;;;;;;;18.73;11.30;;;16.70;99.90;;;;;;5075131;28;20374;-85
2021/09/24 10:40:26;;;;;;;17.88;11.82;;;16.70;99.90;;;;;;5056849;28;20100;-86
2021/09/24 10:43:01;;;;;;;20.92;13.00;;;16.70;99.90;;;;;;5057937;28;20477;-86
2021/09/24 10:45:29;;;;;;;18.25;12.52;;;16.70;99.90;;;;;;5058093;28;20025;-86
2021/09/24 10:48:15;;;;;;;21.73;12.38;;;16.80;99.90;;;;;;5058154;28;20024;-86
2021/09/24 10:50:41;;;;;;;18.83;11.60;;;16.90;99.90;;;;;;5056385;28;20036;-86
2021/09/24 10:53:09;;;;;;;20.80;13.20;;;16.90;99.90;;;;;;5056849;28;20025;-86
2021/09/24 10:55:47;;;;;;;20.95;12.55;;;17.00;99.90;;;;;;5074778;28;20048;-86
2021/09/24 10:58:40;;;;;;;17.88;12.32;;;17.00;99.90;;;;;;5057223;28;20054;-86
2021/09/24 11:01:11;;;;;;;15.38;11.60;;;17.10;99.90;;;;;;5074592;28;20031;-86
2021/09/24 11:03:52;;;;;;;23.50;12.82;;;17.10;99.90;;;;;;5057150;28;20481;-86
2021/09/24 11:06:32;;;;;;;18.50;11.80;;;17.10;99.90;;;;;;5074895;28;20098;-87
2021/09/24 11:09:03;;;;;;;21.88;11.98;;;17.10;99.90;;;;;;5056040;28;20036;-86
2021/09/24 11:11:34;;;;;;;22.48;12.18;;;17.10;99.90;;;;;;5056453;28;20493;-85
2021/09/24 11:14:27;;;;;;;29.02;12.55;;;17.10;99.90;;;;;;5056534;28;20031;-86
2021/09/24 11:16:53;;;;;;;15.80;10.63;;;17.10;99.90;;;;;;5074917;28;20025;-85
2021/09/24 11:19:34;;;;;;;14.38;9.85;;;17.20;99.90;;;;;;5056106;28;20148;-86
2021/09/24 11:22:03;;;;;;;16.42;9.52;;;17.20;99.90;;;;;;5074757;28;20021;-85
2021/09/24 11:24:32;;;;;;;13.65;8.38;;;17.20;99.90;;;;;;5056520;28;20020;-85
2021/09/24 11:26:58;;;;;;;;;;;17.20;99.90;;;;;;5074705;28;20029;-86
2021/09/24 11:29:28;;;;;;;17.30;8.57;;;17.20;99.90;;;;;;5055726;28;19905;-86
2021/09/24 11:31:53;;;;;;;22.42;9.38;;;17.20;99.90;;;;;;5074695;28;20469;-86
2021/09/24 11:34:41;;;;;;;16.20;9.10;;;17.20;99.90;;;;;;5074759;28;20067;-85
2021/09/24 11:37:17;;;;;;;14.02;8.13;;;17.30;99.90;;;;;;5056224;28;20024;-85
2021/09/24 11:39:43;;;;;;;15.35;9.02;;;17.30;99.90;;;;;;5078561;28;20070;-85
2021/09/24 11:42:13;;;;;;;18.17;9.25;;;17.30;99.90;;;;;;5077838;28;20016;-85
2021/09/24 11:44:48;;;;;;;15.95;9.45;;;17.40;99.90;;;;;;5077916;28;20074;-86
2021/09/24 11:47:14;;;;;;;12.50;8.23;;;17.40;99.90;;;;;;5061489;28;20031;-86
2021/09/24 11:50:06;;;;;;;14.18;8.25;;;17.40;99.90;;;;;;5061496;28;20062;-86
2021/09/24 11:52:43;;;;;;;12.52;8.00;;;17.50;99.90;;;;;;5058101;28;20067;-86
2021/09/24 11:55:21;;;;;;;13.23;7.25;;;17.50;99.90;;;;;;5062772;28;20042;-85
2021/09/24 11:57:58;;;;;;;12.73;7.22;;;17.60;99.90;;;;;;5062290;28;20051;-86
2021/09/24 12:00:27;;;;;;;22.63;7.63;;;17.60;99.90;;;;;;5077702;28;20543;-86
2021/09/24 12:03:17;;;;;;;12.68;6.80;;;17.60;99.90;;;;;;5058214;28;20020;-86
2021/09/24 12:06:04;;;;;;;9.38;6.03;;;17.60;99.90;;;;;;5047450;28;20044;-86
2021/09/24 12:08:40;;;;;;;17.15;7.57;;;17.70;99.90;;;;;;5079485;28;20032;-86
2021/09/24 12:11:13;;;;;;;9.73;6.57;;;17.70;99.90;;;;;;5078598;28;20031;-85
2021/09/24 12:13:57;;;;;;;11.27;6.93;;;17.70;99.90;;;;;;5060146;28;20025;-85
2021/09/24 12:16:23;;;;;;;11.82;6.00;;;17.70;99.90;;;;;;5059692;28;20116;-85
2021/09/24 12:18:52;;;;;;;16.13;7.15;;;17.70;99.90;;;;;;5058651;28;20028;-85
2021/09/24 12:21:25;;;;;;;14.73;7.10;;;17.70;99.90;;;;;;5060736;28;20017;-85
2021/09/24 12:23:51;;;;;;;17.77;7.47;;;17.80;99.90;;;;;;5076597;28;20033;-86
2021/09/24 12:26:17;;;;;;;16.95;7.85;;;17.80;99.90;;;;;;5075275;28;20040;-86
2021/09/24 12:29:07;;;;;;;10.77;6.63;;;17.90;99.90;;;;;;5057888;28;20206;-87
2021/09/24 12:31:47;;;;;;;16.45;6.63;;;17.90;99.90;;;;;;5056277;28;20024;-86
2021/09/24 12:34:18;;;;;;;13.60;6.35;;;17.90;99.90;;;;;;5057143;28;20036;-86